sensor_id;sensor_type;location;lat;lon;timestamp;P1;durP1;ratioP1;P2;durP2;ratioP2
16531;SDS011;8378;57.698;11.958;2022-08-04T00:01:49;3.55;;;3.25;;
16531;SDS011;8378;57.698;11.958;2022-08-04T00:09:37;4.55;;;3.70;;
16531;SDS011;8378;57.698;11.958;2022-08-04T00:12:10;5.88;;;3.80;;
16531;SDS011;8378;57.698;11.958;2022-08-04T00:14:37;4.82;;;3.53;;
16531;SDS011;8378;57.698;11.958;2022-08-04T00:17:11;4.82;;;3.40;;
16531;SDS011;8378;57.698;11.958;2022-08-04T00:19:45;3.80;;;3.08;;
16531;SDS011;8378;57.698;11.958;2022-08-04T00:22:12;4.22;;;3.47;;
16531;SDS011;8378;57.698;11.958;2022-08-04T00:24:41;3.47;;;3.08;;
16531;SDS011;8378;57.698;11.958;2022-08-04T00:27:08;4.43;;;3.15;;
16531;SDS011;8378;57.698;11.958;2022-08-04T00:29:37;4.72;;;3.05;;
16531;SDS011;8378;57.698;11.958;2022-08-04T00:32:03;5.03;;;3.33;;
16531;SDS011;8378;57.698;11.958;2022-08-04T00:34:31;4.15;;;2.85;;
16531;SDS011;8378;57.698;11.958;2022-08-04T00:36:59;3.67;;;2.80;;
16531;SDS011;8378;57.698;11.958;2022-08-04T00:39:25;4.20;;;2.83;;
16531;SDS011;8378;57.698;11.958;2022-08-04T00:47:55;3.67;;;2.50;;
16531;SDS011;8378;57.698;11.958;2022-08-04T01:01:34;4.28;;;2.97;;
16531;SDS011;8378;57.698;11.958;2022-08-04T01:04:15;4.55;;;3.40;;
16531;SDS011;8378;57.698;11.958;2022-08-04T01:07:05;15.77;;;4.10;;
16531;SDS011;8378;57.698;11.958;2022-08-04T01:09:52;5.47;;;4.10;;
16531;SDS011;8378;57.698;11.958;2022-08-04T01:18:12;5.95;;;4.15;;
16531;SDS011;8378;57.698;11.958;2022-08-04T01:23:34;7.72;;;4.72;;
16531;SDS011;8378;57.698;11.958;2022-08-04T01:29:08;5.32;;;4.25;;
16531;SDS011;8378;57.698;11.958;2022-08-04T01:34:12;6.32;;;4.75;;
16531;SDS011;8378;57.698;11.958;2022-08-04T01:36:46;5.68;;;4.68;;
16531;SDS011;8378;57.698;11.958;2022-08-04T01:39:20;6.20;;;4.60;;
16531;SDS011;8378;57.698;11.958;2022-08-04T01:42:04;6.50;;;4.45;;
16531;SDS011;8378;57.698;11.958;2022-08-04T01:44:31;5.18;;;4.10;;
16531;SDS011;8378;57.698;11.958;2022-08-04T01:47:00;6.95;;;4.25;;
16531;SDS011;8378;57.698;11.958;2022-08-04T01:49:29;5.72;;;4.20;;
16531;SDS011;8378;57.698;11.958;2022-08-04T01:51:56;4.68;;;3.75;;
16531;SDS011;8378;57.698;11.958;2022-08-04T01:54:23;6.55;;;3.95;;
16531;SDS011;8378;57.698;11.958;2022-08-04T01:56:50;4.40;;;3.47;;
16531;SDS011;8378;57.698;11.958;2022-08-04T01:59:18;6.55;;;3.85;;
16531;SDS011;8378;57.698;11.958;2022-08-04T02:01:44;5.38;;;3.70;;
16531;SDS011;8378;57.698;11.958;2022-08-04T02:04:14;5.10;;;3.47;;
16531;SDS011;8378;57.698;11.958;2022-08-04T02:07:06;5.60;;;3.83;;
16531;SDS011;8378;57.698;11.958;2022-08-04T02:12:51;5.43;;;3.67;;
16531;SDS011;8378;57.698;11.958;2022-08-04T02:15:26;5.97;;;3.97;;
16531;SDS011;8378;57.698;11.958;2022-08-04T02:18:15;4.95;;;3.15;;
16531;SDS011;8378;57.698;11.958;2022-08-04T02:20:48;4.57;;;3.13;;
16531;SDS011;8378;57.698;11.958;2022-08-04T02:23:33;3.85;;;3.15;;
16531;SDS011;8378;57.698;11.958;2022-08-04T02:26:01;4.65;;;3.15;;
16531;SDS011;8378;57.698;11.958;2022-08-04T02:36:58;3.75;;;2.85;;
16531;SDS011;8378;57.698;11.958;2022-08-04T02:39:25;4.00;;;2.63;;
16531;SDS011;8378;57.698;11.958;2022-08-04T02:41:57;4.82;;;2.90;;
16531;SDS011;8378;57.698;11.958;2022-08-04T02:44:24;3.40;;;2.70;;
16531;SDS011;8378;57.698;11.958;2022-08-04T02:46:52;3.65;;;2.60;;
16531;SDS011;8378;57.698;11.958;2022-08-04T02:49:20;5.35;;;2.83;;
16531;SDS011;8378;57.698;11.958;2022-08-04T02:51:50;5.47;;;3.03;;
16531;SDS011;8378;57.698;11.958;2022-08-04T02:54:18;3.75;;;2.85;;
16531;SDS011;8378;57.698;11.958;2022-08-04T02:56:51;5.07;;;2.70;;
16531;SDS011;8378;57.698;11.958;2022-08-04T02:59:20;3.95;;;2.67;;
16531;SDS011;8378;57.698;11.958;2022-08-04T03:01:50;4.07;;;2.50;;
16531;SDS011;8378;57.698;11.958;2022-08-04T03:21:21;4.55;;;3.60;;
16531;SDS011;8378;57.698;11.958;2022-08-04T03:26:53;5.10;;;3.22;;
16531;SDS011;8378;57.698;11.958;2022-08-04T03:38:35;4.95;;;3.53;;
16531;SDS011;8378;57.698;11.958;2022-08-04T04:04:11;4.22;;;3.20;;
16531;SDS011;8378;57.698;11.958;2022-08-04T04:24:10;4.55;;;2.65;;
16531;SDS011;8378;57.698;11.958;2022-08-04T04:32:03;2.90;;;2.13;;
16531;SDS011;8378;57.698;11.958;2022-08-04T04:34:43;4.57;;;2.35;;
16531;SDS011;8378;57.698;11.958;2022-08-04T04:45:20;2.58;;;2.28;;
16531;SDS011;8378;57.698;11.958;2022-08-04T04:47:57;3.42;;;2.22;;
16531;SDS011;8378;57.698;11.958;2022-08-04T04:53:20;3.47;;;2.33;;
16531;SDS011;8378;57.698;11.958;2022-08-04T04:56:04;3.13;;;2.22;;
16531;SDS011;8378;57.698;11.958;2022-08-04T04:58:35;2.92;;;2.30;;
16531;SDS011;8378;57.698;11.958;2022-08-04T05:09:45;2.20;;;1.95;;
16531;SDS011;8378;57.698;11.958;2022-08-04T05:12:25;4.03;;;2.15;;
16531;SDS011;8378;57.698;11.958;2022-08-04T05:14:56;3.30;;;2.22;;
16531;SDS011;8378;57.698;11.958;2022-08-04T05:19:57;4.07;;;1.90;;
16531;SDS011;8378;57.698;11.958;2022-08-04T05:22:27;2.92;;;2.15;;
16531;SDS011;8378;57.698;11.958;2022-08-04T05:25:02;2.55;;;1.88;;
16531;SDS011;8378;57.698;11.958;2022-08-04T05:27:45;2.55;;;2.00;;
16531;SDS011;8378;57.698;11.958;2022-08-04T05:30:37;2.70;;;1.98;;
16531;SDS011;8378;57.698;11.958;2022-08-04T05:33:12;2.78;;;1.92;;
16531;SDS011;8378;57.698;11.958;2022-08-04T05:35:43;3.15;;;2.00;;
16531;SDS011;8378;57.698;11.958;2022-08-04T05:38:17;3.15;;;1.98;;
16531;SDS011;8378;57.698;11.958;2022-08-04T05:40:47;2.60;;;1.77;;
16531;SDS011;8378;57.698;11.958;2022-08-04T05:43:13;3.63;;;1.90;;
16531;SDS011;8378;57.698;11.958;2022-08-04T05:45:40;2.85;;;1.88;;
16531;SDS011;8378;57.698;11.958;2022-08-04T05:48:07;2.70;;;1.80;;
16531;SDS011;8378;57.698;11.958;2022-08-04T05:50:33;2.80;;;2.00;;
16531;SDS011;8378;57.698;11.958;2022-08-04T05:53:00;3.47;;;2.08;;
16531;SDS011;8378;57.698;11.958;2022-08-04T05:55:26;3.03;;;1.77;;
16531;SDS011;8378;57.698;11.958;2022-08-04T05:57:54;3.95;;;2.10;;
16531;SDS011;8378;57.698;11.958;2022-08-04T06:00:23;2.55;;;1.70;;
16531;SDS011;8378;57.698;11.958;2022-08-04T06:02:51;2.53;;;1.67;;
16531;SDS011;8378;57.698;11.958;2022-08-04T06:05:17;2.70;;;1.98;;
16531;SDS011;8378;57.698;11.958;2022-08-04T06:07:44;2.50;;;1.73;;
16531;SDS011;8378;57.698;11.958;2022-08-04T06:10:11;3.55;;;1.85;;
16531;SDS011;8378;57.698;11.958;2022-08-04T06:12:49;2.90;;;1.73;;
16531;SDS011;8378;57.698;11.958;2022-08-04T06:15:19;2.13;;;1.90;;
16531;SDS011;8378;57.698;11.958;2022-08-04T06:17:50;3.67;;;1.80;;
16531;SDS011;8378;57.698;11.958;2022-08-04T06:20:19;2.53;;;1.70;;
16531;SDS011;8378;57.698;11.958;2022-08-04T06:22:53;2.83;;;1.70;;
16531;SDS011;8378;57.698;11.958;2022-08-04T06:25:23;2.33;;;1.77;;
16531;SDS011;8378;57.698;11.958;2022-08-04T06:27:52;3.75;;;1.60;;
16531;SDS011;8378;57.698;11.958;2022-08-04T06:30:19;2.38;;;1.60;;
16531;SDS011;8378;57.698;11.958;2022-08-04T06:32:50;3.55;;;2.08;;
16531;SDS011;8378;57.698;11.958;2022-08-04T06:35:20;2.50;;;1.67;;
16531;SDS011;8378;57.698;11.958;2022-08-04T06:37:47;3.17;;;1.80;;
16531;SDS011;8378;57.698;11.958;2022-08-04T06:40:16;1.98;;;1.58;;
16531;SDS011;8378;57.698;11.958;2022-08-04T06:42:44;3.03;;;1.67;;
16531;SDS011;8378;57.698;11.958;2022-08-04T06:45:11;1.70;;;1.58;;
16531;SDS011;8378;57.698;11.958;2022-08-04T06:47:38;1.90;;;1.65;;
16531;SDS011;8378;57.698;11.958;2022-08-04T06:50:07;1.65;;;1.40;;
16531;SDS011;8378;57.698;11.958;2022-08-04T06:52:34;2.33;;;1.48;;
16531;SDS011;8378;57.698;11.958;2022-08-04T06:55:00;1.73;;;1.60;;
16531;SDS011;8378;57.698;11.958;2022-08-04T06:57:26;1.55;;;1.42;;
16531;SDS011;8378;57.698;11.958;2022-08-04T07:00:00;2.05;;;1.55;;
16531;SDS011;8378;57.698;11.958;2022-08-04T07:02:30;2.40;;;1.58;;
16531;SDS011;8378;57.698;11.958;2022-08-04T07:05:02;1.92;;;1.40;;
16531;SDS011;8378;57.698;11.958;2022-08-04T07:07:30;4.10;;;1.73;;
16531;SDS011;8378;57.698;11.958;2022-08-04T07:09:56;1.90;;;1.42;;
16531;SDS011;8378;57.698;11.958;2022-08-04T07:12:22;2.83;;;1.88;;
16531;SDS011;8378;57.698;11.958;2022-08-04T07:14:49;2.40;;;1.52;;
16531;SDS011;8378;57.698;11.958;2022-08-04T07:17:15;1.65;;;1.42;;
16531;SDS011;8378;57.698;11.958;2022-08-04T07:19:42;4.18;;;1.70;;
16531;SDS011;8378;57.698;11.958;2022-08-04T07:22:11;2.10;;;1.50;;
16531;SDS011;8378;57.698;11.958;2022-08-04T07:24:37;2.47;;;1.60;;
16531;SDS011;8378;57.698;11.958;2022-08-04T07:27:05;1.50;;;1.40;;
16531;SDS011;8378;57.698;11.958;2022-08-04T07:29:31;1.88;;;1.60;;
16531;SDS011;8378;57.698;11.958;2022-08-04T07:31:59;2.60;;;1.50;;
16531;SDS011;8378;57.698;11.958;2022-08-04T07:34:26;1.40;;;1.25;;
16531;SDS011;8378;57.698;11.958;2022-08-04T07:36:54;2.20;;;1.40;;
16531;SDS011;8378;57.698;11.958;2022-08-04T07:39:22;2.63;;;1.67;;
16531;SDS011;8378;57.698;11.958;2022-08-04T07:41:49;1.60;;;1.50;;
16531;SDS011;8378;57.698;11.958;2022-08-04T07:44:16;2.55;;;1.60;;
16531;SDS011;8378;57.698;11.958;2022-08-04T07:46:44;2.22;;;1.60;;
16531;SDS011;8378;57.698;11.958;2022-08-04T07:49:10;3.40;;;1.70;;
16531;SDS011;8378;57.698;11.958;2022-08-04T07:51:36;2.38;;;1.20;;
16531;SDS011;8378;57.698;11.958;2022-08-04T07:54:03;2.10;;;1.40;;
16531;SDS011;8378;57.698;11.958;2022-08-04T07:56:35;2.40;;;1.50;;
16531;SDS011;8378;57.698;11.958;2022-08-04T07:59:02;1.83;;;1.40;;
16531;SDS011;8378;57.698;11.958;2022-08-04T08:01:28;1.90;;;1.45;;
16531;SDS011;8378;57.698;11.958;2022-08-04T08:03:55;2.70;;;1.70;;
16531;SDS011;8378;57.698;11.958;2022-08-04T08:06:25;2.00;;;1.50;;
16531;SDS011;8378;57.698;11.958;2022-08-04T08:08:53;1.98;;;1.50;;
16531;SDS011;8378;57.698;11.958;2022-08-04T08:11:19;2.40;;;1.70;;
16531;SDS011;8378;57.698;11.958;2022-08-04T08:13:45;3.42;;;1.50;;
16531;SDS011;8378;57.698;11.958;2022-08-04T08:16:12;2.20;;;1.60;;
16531;SDS011;8378;57.698;11.958;2022-08-04T08:18:38;2.03;;;1.40;;
16531;SDS011;8378;57.698;11.958;2022-08-04T08:21:03;2.20;;;1.40;;
16531;SDS011;8378;57.698;11.958;2022-08-04T08:23:30;2.00;;;1.48;;
16531;SDS011;8378;57.698;11.958;2022-08-04T08:25:58;1.48;;;1.38;;
16531;SDS011;8378;57.698;11.958;2022-08-04T08:28:24;2.72;;;1.42;;
16531;SDS011;8378;57.698;11.958;2022-08-04T08:30:50;2.08;;;1.50;;
16531;SDS011;8378;57.698;11.958;2022-08-04T08:33:16;2.83;;;1.63;;
16531;SDS011;8378;57.698;11.958;2022-08-04T08:38:13;2.55;;;1.65;;
16531;SDS011;8378;57.698;11.958;2022-08-04T08:54:50;1.77;;;1.48;;
16531;SDS011;8378;57.698;11.958;2022-08-04T09:00:46;1.83;;;1.40;;
16531;SDS011;8378;57.698;11.958;2022-08-04T09:06:21;2.88;;;1.70;;
16531;SDS011;8378;57.698;11.958;2022-08-04T09:12:11;2.17;;;1.63;;
16531;SDS011;8378;57.698;11.958;2022-08-04T09:14:46;1.70;;;1.40;;
16531;SDS011;8378;57.698;11.958;2022-08-04T09:17:22;1.65;;;1.40;;
16531;SDS011;8378;57.698;11.958;2022-08-04T09:20:06;2.40;;;1.50;;
16531;SDS011;8378;57.698;11.958;2022-08-04T09:22:46;1.67;;;1.38;;
16531;SDS011;8378;57.698;11.958;2022-08-04T09:27:57;1.48;;;1.33;;
16531;SDS011;8378;57.698;11.958;2022-08-04T09:33:29;1.80;;;1.55;;
16531;SDS011;8378;57.698;11.958;2022-08-04T09:39:01;1.98;;;1.40;;
16531;SDS011;8378;57.698;11.958;2022-08-04T09:46:39;2.03;;;1.40;;
16531;SDS011;8378;57.698;11.958;2022-08-04T09:49:24;1.92;;;1.40;;
16531;SDS011;8378;57.698;11.958;2022-08-04T09:51:56;1.58;;;1.30;;
16531;SDS011;8378;57.698;11.958;2022-08-04T09:55:33;2.17;;;1.50;;
16531;SDS011;8378;57.698;11.958;2022-08-04T09:58:06;2.63;;;1.50;;
16531;SDS011;8378;57.698;11.958;2022-08-04T10:00:40;2.70;;;1.50;;
16531;SDS011;8378;57.698;11.958;2022-08-04T10:03:11;1.55;;;1.35;;
16531;SDS011;8378;57.698;11.958;2022-08-04T10:08:51;1.75;;;1.42;;
16531;SDS011;8378;57.698;11.958;2022-08-04T10:17:29;2.03;;;1.25;;
16531;SDS011;8378;57.698;11.958;2022-08-04T10:20:06;3.42;;;1.65;;
16531;SDS011;8378;57.698;11.958;2022-08-04T10:22:36;1.52;;;1.42;;
16531;SDS011;8378;57.698;11.958;2022-08-04T10:28:10;2.10;;;1.42;;
16531;SDS011;8378;57.698;11.958;2022-08-04T10:30:40;1.80;;;1.35;;
16531;SDS011;8378;57.698;11.958;2022-08-04T10:35:49;1.92;;;1.50;;
16531;SDS011;8378;57.698;11.958;2022-08-04T10:38:21;1.52;;;1.42;;
16531;SDS011;8378;57.698;11.958;2022-08-04T10:46:07;1.60;;;1.50;;
16531;SDS011;8378;57.698;11.958;2022-08-04T10:51:24;2.00;;;1.52;;
16531;SDS011;8378;57.698;11.958;2022-08-04T10:54:04;2.05;;;1.63;;
16531;SDS011;8378;57.698;11.958;2022-08-04T10:56:37;4.05;;;1.70;;
16531;SDS011;8378;57.698;11.958;2022-08-04T10:59:57;3.03;;;1.55;;
16531;SDS011;8378;57.698;11.958;2022-08-04T11:02:14;1.92;;;1.35;;
16531;SDS011;8378;57.698;11.958;2022-08-04T11:04:50;2.55;;;1.60;;
16531;SDS011;8378;57.698;11.958;2022-08-04T11:07:22;3.45;;;1.63;;
16531;SDS011;8378;57.698;11.958;2022-08-04T11:09:49;3.08;;;1.58;;
16531;SDS011;8378;57.698;11.958;2022-08-04T11:12:16;1.70;;;1.52;;
16531;SDS011;8378;57.698;11.958;2022-08-04T11:14:52;1.73;;;1.48;;
16531;SDS011;8378;57.698;11.958;2022-08-04T11:17:25;2.67;;;1.50;;
16531;SDS011;8378;57.698;11.958;2022-08-04T11:22:46;2.72;;;1.73;;
16531;SDS011;8378;57.698;11.958;2022-08-04T11:25:20;1.60;;;1.50;;
16531;SDS011;8378;57.698;11.958;2022-08-04T11:30:41;2.92;;;1.80;;
16531;SDS011;8378;57.698;11.958;2022-08-04T11:33:19;3.50;;;2.50;;
16531;SDS011;8378;57.698;11.958;2022-08-04T11:38:30;3.03;;;2.20;;
16531;SDS011;8378;57.698;11.958;2022-08-04T11:41:10;3.08;;;2.40;;
16531;SDS011;8378;57.698;11.958;2022-08-04T11:44:00;2.88;;;1.92;;
16531;SDS011;8378;57.698;11.958;2022-08-04T11:46:39;3.00;;;2.10;;
16531;SDS011;8378;57.698;11.958;2022-08-04T11:49:15;2.72;;;2.20;;
16531;SDS011;8378;57.698;11.958;2022-08-04T11:51:55;2.55;;;1.90;;
16531;SDS011;8378;57.698;11.958;2022-08-04T11:54:24;3.35;;;2.20;;
16531;SDS011;8378;57.698;11.958;2022-08-04T11:56:51;3.38;;;2.00;;
16531;SDS011;8378;57.698;11.958;2022-08-04T11:59:17;4.05;;;2.10;;
16531;SDS011;8378;57.698;11.958;2022-08-04T12:07:26;2.63;;;2.08;;
16531;SDS011;8378;57.698;11.958;2022-08-04T12:18:48;2.63;;;1.98;;
16531;SDS011;8378;57.698;11.958;2022-08-04T12:21:22;1.92;;;1.70;;
16531;SDS011;8378;57.698;11.958;2022-08-04T12:24:00;2.80;;;2.00;;
16531;SDS011;8378;57.698;11.958;2022-08-04T12:26:34;2.20;;;1.70;;
16531;SDS011;8378;57.698;11.958;2022-08-04T12:29:04;2.95;;;1.63;;
16531;SDS011;8378;57.698;11.958;2022-08-04T12:31:43;2.85;;;2.10;;
16531;SDS011;8378;57.698;11.958;2022-08-04T12:34:24;2.67;;;1.67;;
16531;SDS011;8378;57.698;11.958;2022-08-04T12:37:17;2.25;;;1.60;;
16531;SDS011;8378;57.698;11.958;2022-08-04T12:39:48;2.20;;;1.60;;
16531;SDS011;8378;57.698;11.958;2022-08-04T12:42:26;1.60;;;1.48;;
16531;SDS011;8378;57.698;11.958;2022-08-04T12:45:02;2.58;;;1.60;;
16531;SDS011;8378;57.698;11.958;2022-08-04T12:47:31;2.47;;;1.70;;
16531;SDS011;8378;57.698;11.958;2022-08-04T12:50:00;2.00;;;1.60;;
16531;SDS011;8378;57.698;11.958;2022-08-04T12:52:32;2.60;;;1.52;;
16531;SDS011;8378;57.698;11.958;2022-08-04T12:55:10;2.53;;;1.92;;
16531;SDS011;8378;57.698;11.958;2022-08-04T12:57:37;2.70;;;1.80;;
16531;SDS011;8378;57.698;11.958;2022-08-04T13:00:06;1.70;;;1.50;;
16531;SDS011;8378;57.698;11.958;2022-08-04T13:02:35;2.65;;;1.50;;
16531;SDS011;8378;57.698;11.958;2022-08-04T13:05:06;3.00;;;1.65;;
16531;SDS011;8378;57.698;11.958;2022-08-04T13:07:37;2.00;;;1.70;;
16531;SDS011;8378;57.698;11.958;2022-08-04T13:10:16;2.25;;;1.70;;
16531;SDS011;8378;57.698;11.958;2022-08-04T13:12:50;1.80;;;1.52;;
16531;SDS011;8378;57.698;11.958;2022-08-04T13:15:21;2.10;;;1.45;;
16531;SDS011;8378;57.698;11.958;2022-08-04T13:17:50;2.22;;;1.85;;
16531;SDS011;8378;57.698;11.958;2022-08-04T13:20:35;1.90;;;1.67;;
16531;SDS011;8378;57.698;11.958;2022-08-04T13:23:05;2.38;;;1.70;;
16531;SDS011;8378;57.698;11.958;2022-08-04T13:25:32;2.78;;;1.70;;
16531;SDS011;8378;57.698;11.958;2022-08-04T13:28:00;2.67;;;1.70;;
16531;SDS011;8378;57.698;11.958;2022-08-04T13:30:26;2.00;;;1.60;;
16531;SDS011;8378;57.698;11.958;2022-08-04T13:32:56;3.45;;;1.75;;
16531;SDS011;8378;57.698;11.958;2022-08-04T13:35:24;2.38;;;1.70;;
16531;SDS011;8378;57.698;11.958;2022-08-04T13:37:51;1.52;;;1.42;;
16531;SDS011;8378;57.698;11.958;2022-08-04T13:40:20;2.35;;;1.80;;
16531;SDS011;8378;57.698;11.958;2022-08-04T13:42:50;1.98;;;1.50;;
16531;SDS011;8378;57.698;11.958;2022-08-04T13:45:21;3.30;;;1.80;;
16531;SDS011;8378;57.698;11.958;2022-08-04T13:47:49;2.10;;;1.40;;
16531;SDS011;8378;57.698;11.958;2022-08-04T13:50:22;1.92;;;1.55;;
16531;SDS011;8378;57.698;11.958;2022-08-04T13:52:54;2.28;;;1.70;;
16531;SDS011;8378;57.698;11.958;2022-08-04T13:55:34;1.60;;;1.38;;
16531;SDS011;8378;57.698;11.958;2022-08-04T13:58:12;2.75;;;1.52;;
16531;SDS011;8378;57.698;11.958;2022-08-04T14:00:46;3.58;;;1.80;;
16531;SDS011;8378;57.698;11.958;2022-08-04T14:06:12;2.28;;;1.70;;
16531;SDS011;8378;57.698;11.958;2022-08-04T14:11:29;3.08;;;1.70;;
16531;SDS011;8378;57.698;11.958;2022-08-04T14:14:00;2.60;;;1.70;;
16531;SDS011;8378;57.698;11.958;2022-08-04T14:17:02;1.90;;;1.65;;
16531;SDS011;8378;57.698;11.958;2022-08-04T14:19:51;3.30;;;1.77;;
16531;SDS011;8378;57.698;11.958;2022-08-04T14:24:57;2.55;;;1.58;;
16531;SDS011;8378;57.698;11.958;2022-08-04T14:27:46;3.92;;;1.80;;
16531;SDS011;8378;57.698;11.958;2022-08-04T14:30:24;3.22;;;1.80;;
16531;SDS011;8378;57.698;11.958;2022-08-04T14:35:30;3.30;;;1.85;;
16531;SDS011;8378;57.698;11.958;2022-08-04T14:38:04;2.92;;;1.65;;
16531;SDS011;8378;57.698;11.958;2022-08-04T14:40:32;3.17;;;1.65;;
16531;SDS011;8378;57.698;11.958;2022-08-04T14:42:59;3.28;;;1.90;;
16531;SDS011;8378;57.698;11.958;2022-08-04T14:45:33;3.30;;;1.75;;
16531;SDS011;8378;57.698;11.958;2022-08-04T14:47:59;2.05;;;1.67;;
16531;SDS011;8378;57.698;11.958;2022-08-04T14:50:34;2.20;;;1.77;;
16531;SDS011;8378;57.698;11.958;2022-08-04T14:53:07;2.22;;;1.75;;
16531;SDS011;8378;57.698;11.958;2022-08-04T14:55:35;3.95;;;1.77;;
16531;SDS011;8378;57.698;11.958;2022-08-04T14:58:02;3.47;;;1.70;;
16531;SDS011;8378;57.698;11.958;2022-08-04T15:00:29;2.58;;;1.80;;
16531;SDS011;8378;57.698;11.958;2022-08-04T15:02:59;4.38;;;1.90;;
16531;SDS011;8378;57.698;11.958;2022-08-04T15:05:32;2.47;;;1.90;;
16531;SDS011;8378;57.698;11.958;2022-08-04T15:07:58;2.55;;;1.52;;
16531;SDS011;8378;57.698;11.958;2022-08-04T15:10:24;2.83;;;1.85;;
16531;SDS011;8378;57.698;11.958;2022-08-04T15:12:50;2.78;;;1.55;;
16531;SDS011;8378;57.698;11.958;2022-08-04T15:15:16;2.25;;;1.70;;
16531;SDS011;8378;57.698;11.958;2022-08-04T15:17:41;2.58;;;1.50;;
16531;SDS011;8378;57.698;11.958;2022-08-04T15:20:09;2.95;;;1.95;;
16531;SDS011;8378;57.698;11.958;2022-08-04T15:22:36;2.03;;;1.60;;
16531;SDS011;8378;57.698;11.958;2022-08-04T15:25:02;1.92;;;1.58;;
16531;SDS011;8378;57.698;11.958;2022-08-04T15:27:30;3.60;;;1.70;;
16531;SDS011;8378;57.698;11.958;2022-08-04T15:30:06;3.13;;;1.90;;
16531;SDS011;8378;57.698;11.958;2022-08-04T15:32:39;3.30;;;2.00;;
16531;SDS011;8378;57.698;11.958;2022-08-04T15:35:11;2.45;;;1.88;;
16531;SDS011;8378;57.698;11.958;2022-08-04T15:37:48;2.60;;;1.73;;
16531;SDS011;8378;57.698;11.958;2022-08-04T15:43:03;4.20;;;2.17;;
16531;SDS011;8378;57.698;11.958;2022-08-04T15:45:49;2.42;;;1.90;;
16531;SDS011;8378;57.698;11.958;2022-08-04T15:53:32;2.58;;;1.60;;
16531;SDS011;8378;57.698;11.958;2022-08-04T15:58:54;3.30;;;1.90;;
16531;SDS011;8378;57.698;11.958;2022-08-04T16:01:21;2.50;;;1.98;;
16531;SDS011;8378;57.698;11.958;2022-08-04T16:03:48;2.83;;;1.60;;
16531;SDS011;8378;57.698;11.958;2022-08-04T16:16:28;2.65;;;1.85;;
16531;SDS011;8378;57.698;11.958;2022-08-04T16:19:10;2.83;;;1.90;;
16531;SDS011;8378;57.698;11.958;2022-08-04T16:21:48;4.07;;;2.20;;
16531;SDS011;8378;57.698;11.958;2022-08-04T16:26:56;3.85;;;2.10;;
16531;SDS011;8378;57.698;11.958;2022-08-04T16:37:02;2.80;;;1.60;;
16531;SDS011;8378;57.698;11.958;2022-08-04T16:39:29;2.75;;;1.80;;
16531;SDS011;8378;57.698;11.958;2022-08-04T16:41:55;2.45;;;1.80;;
16531;SDS011;8378;57.698;11.958;2022-08-04T16:44:30;2.75;;;1.92;;
16531;SDS011;8378;57.698;11.958;2022-08-04T16:46:58;3.28;;;2.05;;
16531;SDS011;8378;57.698;11.958;2022-08-04T16:49:25;2.58;;;1.80;;
16531;SDS011;8378;57.698;11.958;2022-08-04T16:51:52;2.92;;;1.77;;
16531;SDS011;8378;57.698;11.958;2022-08-04T16:54:19;4.63;;;2.10;;
16531;SDS011;8378;57.698;11.958;2022-08-04T16:56:46;3.00;;;2.05;;
16531;SDS011;8378;57.698;11.958;2022-08-04T16:59:12;3.17;;;1.80;;
16531;SDS011;8378;57.698;11.958;2022-08-04T17:01:47;3.60;;;1.90;;
16531;SDS011;8378;57.698;11.958;2022-08-04T17:04:15;2.60;;;1.92;;
16531;SDS011;8378;57.698;11.958;2022-08-04T17:06:41;3.15;;;1.98;;
16531;SDS011;8378;57.698;11.958;2022-08-04T17:09:12;3.78;;;1.88;;
16531;SDS011;8378;57.698;11.958;2022-08-04T17:11:40;3.60;;;1.95;;
16531;SDS011;8378;57.698;11.958;2022-08-04T17:14:07;3.47;;;2.38;;
16531;SDS011;8378;57.698;11.958;2022-08-04T17:16:34;4.18;;;2.53;;
16531;SDS011;8378;57.698;11.958;2022-08-04T17:19:02;3.95;;;2.65;;
16531;SDS011;8378;57.698;11.958;2022-08-04T17:21:29;5.68;;;3.35;;
16531;SDS011;8378;57.698;11.958;2022-08-04T17:23:57;5.90;;;3.70;;
16531;SDS011;8378;57.698;11.958;2022-08-04T17:26:25;5.28;;;3.50;;
16531;SDS011;8378;57.698;11.958;2022-08-04T17:28:55;3.70;;;3.03;;
16531;SDS011;8378;57.698;11.958;2022-08-04T17:31:22;5.25;;;3.95;;
16531;SDS011;8378;57.698;11.958;2022-08-04T17:33:52;7.15;;;3.72;;
16531;SDS011;8378;57.698;11.958;2022-08-04T17:36:23;4.63;;;3.58;;
16531;SDS011;8378;57.698;11.958;2022-08-04T17:38:52;4.93;;;3.50;;
16531;SDS011;8378;57.698;11.958;2022-08-04T17:41:19;5.30;;;3.78;;
16531;SDS011;8378;57.698;11.958;2022-08-04T17:43:51;5.00;;;3.95;;
16531;SDS011;8378;57.698;11.958;2022-08-04T17:51:32;4.68;;;3.60;;
16531;SDS011;8378;57.698;11.958;2022-08-04T17:54:20;4.78;;;3.53;;
16531;SDS011;8378;57.698;11.958;2022-08-04T17:56:55;5.57;;;3.47;;
16531;SDS011;8378;57.698;11.958;2022-08-04T17:59:27;4.88;;;3.58;;
16531;SDS011;8378;57.698;11.958;2022-08-04T18:01:59;5.25;;;3.53;;
16531;SDS011;8378;57.698;11.958;2022-08-04T18:07:00;6.95;;;3.38;;
16531;SDS011;8378;57.698;11.958;2022-08-04T18:09:29;5.63;;;3.80;;
16531;SDS011;8378;57.698;11.958;2022-08-04T18:12:00;4.72;;;3.90;;
16531;SDS011;8378;57.698;11.958;2022-08-04T18:14:37;5.57;;;4.30;;
16531;SDS011;8378;57.698;11.958;2022-08-04T18:17:03;5.68;;;4.18;;
16531;SDS011;8378;57.698;11.958;2022-08-04T18:19:29;5.43;;;4.35;;
16531;SDS011;8378;57.698;11.958;2022-08-04T18:21:55;5.75;;;3.95;;
16531;SDS011;8378;57.698;11.958;2022-08-04T18:24:20;4.95;;;4.13;;
16531;SDS011;8378;57.698;11.958;2022-08-04T18:26:46;6.35;;;4.20;;
16531;SDS011;8378;57.698;11.958;2022-08-04T18:29:12;4.53;;;3.50;;
16531;SDS011;8378;57.698;11.958;2022-08-04T18:31:37;4.68;;;3.70;;
16531;SDS011;8378;57.698;11.958;2022-08-04T18:34:04;5.15;;;3.78;;
16531;SDS011;8378;57.698;11.958;2022-08-04T18:36:31;4.20;;;3.50;;
16531;SDS011;8378;57.698;11.958;2022-08-04T18:38:59;5.50;;;3.67;;
16531;SDS011;8378;57.698;11.958;2022-08-04T18:41:27;4.68;;;3.40;;
16531;SDS011;8378;57.698;11.958;2022-08-04T18:43:56;6.32;;;3.80;;
16531;SDS011;8378;57.698;11.958;2022-08-04T18:46:25;5.65;;;3.55;;
16531;SDS011;8378;57.698;11.958;2022-08-04T18:48:51;5.20;;;3.75;;
16531;SDS011;8378;57.698;11.958;2022-08-04T18:51:16;4.13;;;3.70;;
16531;SDS011;8378;57.698;11.958;2022-08-04T18:53:43;5.68;;;3.55;;
16531;SDS011;8378;57.698;11.958;2022-08-04T18:56:09;5.25;;;4.30;;
16531;SDS011;8378;57.698;11.958;2022-08-04T18:58:35;5.35;;;4.07;;
16531;SDS011;8378;57.698;11.958;2022-08-04T19:01:00;6.53;;;4.55;;
16531;SDS011;8378;57.698;11.958;2022-08-04T19:03:26;5.20;;;4.07;;
16531;SDS011;8378;57.698;11.958;2022-08-04T19:05:52;5.55;;;4.18;;
16531;SDS011;8378;57.698;11.958;2022-08-04T19:08:18;7.70;;;4.00;;
16531;SDS011;8378;57.698;11.958;2022-08-04T19:10:44;7.10;;;4.22;;
16531;SDS011;8378;57.698;11.958;2022-08-04T19:13:10;5.15;;;3.55;;
16531;SDS011;8378;57.698;11.958;2022-08-04T19:15:35;5.57;;;3.83;;
16531;SDS011;8378;57.698;11.958;2022-08-04T19:18:01;6.43;;;3.55;;
16531;SDS011;8378;57.698;11.958;2022-08-04T19:20:27;5.50;;;3.90;;
16531;SDS011;8378;57.698;11.958;2022-08-04T19:22:53;4.60;;;3.47;;
16531;SDS011;8378;57.698;11.958;2022-08-04T19:25:19;7.90;;;3.97;;
16531;SDS011;8378;57.698;11.958;2022-08-04T19:27:44;4.68;;;3.58;;
16531;SDS011;8378;57.698;11.958;2022-08-04T19:30:10;5.10;;;3.70;;
16531;SDS011;8378;57.698;11.958;2022-08-04T19:32:36;4.18;;;3.35;;
16531;SDS011;8378;57.698;11.958;2022-08-04T19:35:02;6.35;;;3.63;;
16531;SDS011;8378;57.698;11.958;2022-08-04T19:37:28;5.53;;;3.63;;
16531;SDS011;8378;57.698;11.958;2022-08-04T19:39:53;5.47;;;3.65;;
16531;SDS011;8378;57.698;11.958;2022-08-04T19:42:19;5.43;;;3.70;;
16531;SDS011;8378;57.698;11.958;2022-08-04T19:44:45;6.45;;;3.60;;
16531;SDS011;8378;57.698;11.958;2022-08-04T19:47:10;4.82;;;3.40;;
16531;SDS011;8378;57.698;11.958;2022-08-04T19:49:36;4.90;;;3.78;;
16531;SDS011;8378;57.698;11.958;2022-08-04T19:52:01;5.53;;;3.60;;